Douglas, Isle of Man
Current Conditions -  °F | °C
As of 10:20 AM on Saturday 20 Dec 2014 (Local Time) from EGNS Reporting Station
Few Clouds Few Clouds  
Wind Chill: 37°   Ceiling: Unl
Heat Index: 46°   Visibility: 6mi
Dew Point: 37°   Wind: 29mph
Humidity: 71%   Direction: 290°WNW
Pressure: 30.18"   Gusts: NA
Location:  54.15°N, 4.48°W
Report Text: EGNS 200920Z 29025KT 260V330 9999 FEW022 08/03 Q1022 NOSIG
Loading
Personal Weather Stations






























Interactive Weather Map New forecast layout! Learn more

10-Day Weather Forecast

Advertisements
Track Severe Weather on mobile